Time;durP1;ratioP1;P1;durP2;ratioP2;P2;SDS_P1;SDS_P2;PMS_P1;PMS_P2;Temp;Humidity;BMP_temperature;BMP_pressure;BME280_temperature;BME280_humidity;BME280_pressure;Samples;Min_cycle;Max_cycle;Signal;HPM_P1;HPM_P2
2024/01/06 00:01:49;;;;;;;10.15;4.25;;;5.40;99.90;;;;;;5034595;28;20477;-57
2024/01/06 00:04:15;;;;;;;7.68;3.63;;;5.40;99.90;;;;;;5022960;28;20049;-53
2024/01/06 00:06:41;;;;;;;5.95;3.47;;;5.40;99.90;;;;;;5054949;28;20021;-55
2024/01/06 00:09:07;;;;;;;9.07;4.20;;;5.40;99.90;;;;;;5054950;28;20063;-58
2024/01/06 00:11:32;;;;;;;12.73;4.45;;;5.40;99.90;;;;;;5054476;28;20021;-54
2024/01/06 00:13:58;;;;;;;15.18;4.15;;;5.50;99.90;;;;;;5054395;28;20033;-54
2024/01/06 00:16:23;;;;;;;9.20;3.50;;;5.50;99.90;;;;;;5054855;28;20460;-60
2024/01/06 00:18:49;;;;;;;11.35;3.35;;;5.60;99.90;;;;;;5055511;28;20037;-60
2024/01/06 00:21:14;;;;;;;6.05;3.20;;;5.60;99.90;;;;;;5037174;28;20025;-60
2024/01/06 00:23:40;;;;;;;6.45;3.38;;;5.70;99.90;;;;;;5054640;28;20458;-60
2024/01/06 00:26:08;;;;;;;10.32;4.30;;;5.70;99.90;;;;;;5054643;28;20032;-60
2024/01/06 00:28:33;;;;;;;10.13;3.50;;;5.80;99.90;;;;;;5036656;28;20060;-58
2024/01/06 00:30:59;;;;;;;6.05;2.95;;;5.80;99.90;;;;;;5074348;23;20504;-42
2024/01/06 00:33:24;;;;;;;6.40;3.08;;;5.90;99.90;;;;;;5050903;28;20021;-44
2024/01/06 00:35:50;;;;;;;5.55;3.00;;;5.90;99.90;;;;;;5052418;28;20476;-44
2024/01/06 00:38:15;;;;;;;4.68;3.17;;;6.10;99.90;;;;;;5053370;28;20078;-43
2024/01/06 00:40:41;;;;;;;7.72;3.67;;;6.00;99.90;;;;;;5053986;28;20036;-43
2024/01/06 00:43:07;;;;;;;7.85;2.80;;;5.90;99.90;;;;;;5034397;28;20109;-49
2024/01/06 00:45:32;;;;;;;5.20;3.50;;;5.90;99.90;;;;;;5033997;28;20025;-47
2024/01/06 00:47:57;;;;;;;8.38;3.38;;;5.80;99.90;;;;;;5033898;28;20546;-44
2024/01/06 00:50:23;;;;;;;13.32;5.47;;;5.80;99.90;;;;;;5034041;28;20018;-44
2024/01/06 00:52:52;;;;;;;6.25;3.05;;;5.70;99.90;;;;;;5033706;28;20033;-41
2024/01/06 00:55:20;;;;;;;7.63;2.88;;;5.70;99.90;;;;;;5033824;28;20476;-41
2024/01/06 00:57:46;;;;;;;6.38;3.72;;;5.60;99.90;;;;;;5034189;28;20040;-46
2024/01/06 01:00:12;;;;;;;8.65;3.70;;;5.60;99.90;;;;;;5033971;28;20033;-46
2024/01/06 01:02:38;;;;;;;6.40;3.15;;;5.60;99.90;;;;;;5033773;28;20080;-44
2024/01/06 01:05:04;;;;;;;8.02;3.65;;;5.70;99.90;;;;;;5033922;28;20030;-44
2024/01/06 01:07:30;;;;;;;7.82;3.42;;;5.70;99.90;;;;;;5033690;28;20492;-46
2024/01/06 01:09:56;;;;;;;7.85;3.30;;;5.70;99.90;;;;;;5033602;28;20049;-45
2024/01/06 01:12:23;;;;;;;4.40;3.63;;;5.70;99.90;;;;;;5032163;28;20513;-48
2024/01/06 01:14:48;;;;;;;4.38;3.10;;;5.70;99.90;;;;;;5031994;28;20036;-43
2024/01/06 01:17:14;;;;;;;6.05;3.25;;;5.70;99.90;;;;;;5032300;28;20477;-46
2024/01/06 01:19:40;;;;;;;7.82;3.05;;;5.90;99.90;;;;;;5033464;28;20481;-47
2024/01/06 01:22:05;;;;;;;5.82;3.20;;;5.90;99.90;;;;;;5033211;28;20025;-45
2024/01/06 01:24:31;;;;;;;7.28;3.08;;;5.90;99.90;;;;;;5033224;28;20020;-43
2024/01/06 01:26:56;;;;;;;6.22;3.10;;;5.90;99.90;;;;;;5032710;28;20392;-48
2024/01/06 01:29:22;;;;;;;9.25;3.35;;;5.90;99.90;;;;;;5032143;28;20026;-45
2024/01/06 01:31:47;;;;;;;4.10;3.15;;;5.80;99.90;;;;;;5031773;28;20086;-44
2024/01/06 01:34:13;;;;;;;6.75;3.50;;;5.90;99.90;;;;;;5032857;28;20030;-44
2024/01/06 01:36:39;;;;;;;4.70;3.10;;;5.90;99.90;;;;;;5033300;28;20203;-46
2024/01/06 01:39:05;;;;;;;7.03;3.17;;;5.90;99.90;;;;;;5033480;28;20029;-44
2024/01/06 01:41:30;;;;;;;9.82;3.92;;;6.00;99.90;;;;;;5033956;28;20366;-41
2024/01/06 01:43:59;;;;;;;14.25;3.80;;;6.00;99.90;;;;;;5031695;28;20485;-42
2024/01/06 01:46:28;;;;;;;6.85;3.10;;;6.00;99.90;;;;;;5032406;28;20104;-42
2024/01/06 01:48:58;;;;;;;12.60;4.25;;;5.90;99.90;;;;;;5033421;28;20067;-41
2024/01/06 01:51:26;;;;;;;7.30;3.70;;;5.90;99.90;;;;;;5033019;28;20021;-44
2024/01/06 01:53:53;;;;;;;10.80;4.03;;;5.90;99.90;;;;;;5032599;28;20460;-44
2024/01/06 01:56:19;;;;;;;9.32;3.10;;;5.90;99.90;;;;;;5033033;28;20378;-44
2024/01/06 01:58:45;;;;;;;13.25;3.40;;;5.90;99.90;;;;;;5032801;28;20386;-42
2024/01/06 02:01:11;;;;;;;6.93;3.45;;;5.90;99.90;;;;;;5032576;28;20104;-42
2024/01/06 02:03:37;;;;;;;10.68;3.08;;;5.90;99.90;;;;;;5032567;28;20108;-45
2024/01/06 02:06:03;;;;;;;7.32;3.72;;;6.00;99.90;;;;;;5032652;28;20495;-43
2024/01/06 02:08:28;;;;;;;7.05;3.30;;;6.00;99.90;;;;;;5032535;28;20022;-42
2024/01/06 02:10:57;;;;;;;8.07;3.60;;;6.00;99.90;;;;;;5032361;28;20415;-45
2024/01/06 02:13:23;;;;;;;12.00;3.63;;;6.00;99.90;;;;;;5032011;28;20033;-46
2024/01/06 02:15:49;;;;;;;13.98;4.40;;;6.00;99.90;;;;;;5032507;28;20025;-42
2024/01/06 02:18:15;;;;;;;6.90;3.00;;;6.00;99.90;;;;;;5031018;28;20507;-45
2024/01/06 02:20:44;;;;;;;8.98;3.28;;;6.10;99.90;;;;;;5032231;28;20033;-44
2024/01/06 02:23:09;;;;;;;4.68;2.55;;;6.10;99.90;;;;;;5031954;28;20025;-43
2024/01/06 02:25:35;;;;;;;8.50;3.08;;;6.10;99.90;;;;;;5030768;28;20022;-46
2024/01/06 02:28:01;;;;;;;4.90;2.60;;;6.10;99.90;;;;;;5032060;28;20025;-44
2024/01/06 02:30:26;;;;;;;7.68;3.15;;;6.20;99.90;;;;;;5032389;28;20026;-43
2024/01/06 02:32:52;;;;;;;3.67;2.35;;;6.10;99.90;;;;;;5030581;28;20030;-45
2024/01/06 02:35:17;;;;;;;4.47;2.88;;;6.30;99.90;;;;;;5032091;28;20041;-43
2024/01/06 02:37:43;;;;;;;7.60;2.72;;;6.30;99.90;;;;;;5032020;28;20497;-46
2024/01/06 02:40:09;;;;;;;4.82;2.47;;;6.30;99.90;;;;;;5031743;28;20033;-40
2024/01/06 02:42:34;;;;;;;12.15;3.53;;;6.20;99.90;;;;;;5030620;28;20026;-45
2024/01/06 02:45:00;;;;;;;9.00;2.55;;;6.20;99.90;;;;;;5031811;28;20025;-43
2024/01/06 02:47:25;;;;;;;4.85;2.60;;;6.30;99.90;;;;;;5031969;28;20052;-47
2024/01/06 02:49:51;;;;;;;2.30;2.08;;;6.30;99.90;;;;;;5030696;28;20080;-45
2024/01/06 02:52:16;;;;;;;2.97;2.20;;;6.20;99.90;;;;;;5030345;28;20029;-45
2024/01/06 02:54:42;;;;;;;7.40;2.58;;;6.30;99.90;;;;;;5031659;28;20492;-45
2024/01/06 02:57:07;;;;;;;6.40;2.15;;;6.20;99.90;;;;;;5031467;28;20029;-47
2024/01/06 02:59:34;;;;;;;3.85;2.25;;;6.20;99.90;;;;;;5031823;28;20195;-42
2024/01/06 03:02:00;;;;;;;3.97;2.28;;;6.20;99.90;;;;;;5031511;28;20473;-45
2024/01/06 03:04:26;;;;;;;6.20;2.25;;;6.20;99.90;;;;;;5030222;28;20044;-47
2024/01/06 03:06:53;;;;;;;8.45;2.58;;;6.20;99.90;;;;;;5031572;28;20465;-46
2024/01/06 03:09:19;;;;;;;7.25;2.33;;;6.20;99.90;;;;;;5031528;28;20396;-46
2024/01/06 03:11:45;;;;;;;4.28;1.95;;;6.30;99.90;;;;;;5031305;28;20022;-42
2024/01/06 03:14:10;;;;;;;6.38;2.00;;;6.40;99.90;;;;;;5031311;28;20459;-42
2024/01/06 03:16:36;;;;;;;3.70;2.20;;;6.40;99.90;;;;;;5031534;28;20112;-41
2024/01/06 03:19:01;;;;;;;3.40;1.85;;;6.30;99.90;;;;;;5031563;28;20091;-42
2024/01/06 03:21:27;;;;;;;10.35;2.75;;;6.40;99.90;;;;;;5029932;28;20040;-45
2024/01/06 03:23:55;;;;;;;6.45;2.45;;;6.40;99.90;;;;;;5031125;28;20086;-43
2024/01/06 03:26:20;;;;;;;5.82;2.45;;;6.40;99.90;;;;;;5031376;28;20029;-42
2024/01/06 03:28:46;;;;;;;6.65;2.45;;;6.40;99.90;;;;;;5031371;28;20104;-41
2024/01/06 03:31:11;;;;;;;4.45;2.13;;;6.40;99.90;;;;;;5030551;28;20037;-41
2024/01/06 03:33:37;;;;;;;3.92;2.47;;;6.40;99.90;;;;;;5031086;28;20132;-46
2024/01/06 03:36:06;;;;;;;7.80;2.22;;;6.50;99.90;;;;;;5030030;28;20424;-44
2024/01/06 03:38:33;;;;;;;4.43;2.05;;;6.60;99.90;;;;;;5031501;28;20065;-45
2024/01/06 03:40:58;;;;;;;9.15;2.08;;;6.60;99.90;;;;;;5031222;28;20029;-42
2024/01/06 03:43:24;;;;;;;7.30;3.03;;;6.50;99.90;;;;;;5030924;28;20029;-42
2024/01/06 03:45:49;;;;;;;5.38;1.88;;;6.60;99.90;;;;;;5031365;28;20030;-45
2024/01/06 03:48:15;;;;;;;7.63;2.47;;;6.50;99.90;;;;;;5031307;28;20029;-43
2024/01/06 03:50:40;;;;;;;4.40;2.10;;;6.50;99.90;;;;;;5031032;28;20127;-46
2024/01/06 03:53:06;;;;;;;2.95;2.30;;;6.40;99.90;;;;;;5030678;28;20025;-46
2024/01/06 03:55:31;;;;;;;4.75;2.58;;;6.50;99.90;;;;;;5030986;28;20037;-43
2024/01/06 03:57:57;;;;;;;4.00;2.55;;;6.40;99.90;;;;;;5031045;28;20030;-43
2024/01/06 04:00:25;;;;;;;4.88;3.28;;;6.40;99.90;;;;;;5030941;28;20489;-42
2024/01/06 04:02:51;;;;;;;6.18;2.30;;;6.40;99.90;;;;;;5030806;28;20018;-41
2024/01/06 04:05:16;;;;;;;6.43;2.38;;;6.40;99.90;;;;;;5030873;28;20022;-42
2024/01/06 04:07:42;;;;;;;3.97;2.53;;;6.40;99.90;;;;;;5030839;28;20084;-45
2024/01/06 04:10:08;;;;;;;3.53;2.13;;;6.40;99.90;;;;;;5032472;28;20037;-45
2024/01/06 04:12:33;;;;;;;5.55;2.33;;;6.40;99.90;;;;;;5034636;28;20034;-45
2024/01/06 04:14:59;;;;;;;9.32;2.58;;;6.30;99.90;;;;;;5034579;28;20037;-43
2024/01/06 04:17:26;;;;;;;3.70;2.05;;;6.30;99.90;;;;;;5034405;28;20056;-46
2024/01/06 04:19:52;;;;;;;6.22;2.78;;;6.30;99.90;;;;;;5034448;28;20111;-43
2024/01/06 04:22:18;;;;;;;8.55;2.80;;;6.30;99.90;;;;;;5034265;28;20507;-43
2024/01/06 04:24:43;;;;;;;7.60;3.13;;;6.30;99.90;;;;;;5034944;28;20022;-42
2024/01/06 04:27:09;;;;;;;4.55;2.35;;;6.30;99.90;;;;;;5033086;28;20021;-45
2024/01/06 04:29:35;;;;;;;9.25;2.65;;;6.30;99.90;;;;;;5034453;28;20021;-42
2024/01/06 04:32:00;;;;;;;9.45;3.00;;;6.30;99.90;;;;;;5034400;28;20052;-47
2024/01/06 04:34:26;;;;;;;7.50;3.00;;;6.40;99.90;;;;;;5034075;28;20370;-44
2024/01/06 04:36:51;;;;;;;4.00;2.08;;;6.50;99.90;;;;;;5034183;28;20026;-45
2024/01/06 04:39:17;;;;;;;5.13;2.67;;;6.40;99.90;;;;;;5034495;28;20536;-45
2024/01/06 04:41:43;;;;;;;13.50;2.92;;;6.40;99.90;;;;;;5034144;28;20567;-43
2024/01/06 04:44:08;;;;;;;8.10;3.03;;;6.40;99.90;;;;;;5033883;28;20053;-44
2024/01/06 04:46:33;;;;;;;6.28;2.50;;;6.40;99.90;;;;;;5034007;28;20037;-45
2024/01/06 04:48:59;;;;;;;4.97;2.53;;;6.40;99.90;;;;;;5033986;28;20021;-43
2024/01/06 04:51:25;;;;;;;5.53;2.53;;;6.50;99.90;;;;;;5033735;28;20029;-45
2024/01/06 04:53:50;;;;;;;8.93;3.20;;;6.50;99.90;;;;;;5033647;28;20075;-46
2024/01/06 04:56:15;;;;;;;4.05;2.35;;;6.60;99.90;;;;;;5033727;28;20037;-44
2024/01/06 04:58:41;;;;;;;10.77;3.17;;;6.60;99.90;;;;;;5032630;28;20463;-43
2024/01/06 05:01:07;;;;;;;5.22;2.88;;;6.60;99.90;;;;;;5033698;28;20057;-44
2024/01/06 05:03:33;;;;;;;8.57;3.25;;;6.60;99.90;;;;;;5033500;28;20476;-45
2024/01/06 05:05:58;;;;;;;7.97;3.63;;;6.60;99.90;;;;;;5033538;28;20030;-43
2024/01/06 05:08:24;;;;;;;6.90;2.88;;;6.60;99.90;;;;;;5033546;28;20389;-43
2024/01/06 05:10:52;;;;;;;7.18;2.85;;;6.60;99.90;;;;;;5033562;28;20025;-43
2024/01/06 05:13:17;;;;;;;6.75;2.65;;;6.60;99.90;;;;;;5033288;28;20536;-47
2024/01/06 05:15:43;;;;;;;5.72;2.83;;;6.50;99.90;;;;;;5033647;28;20105;-45
2024/01/06 05:18:09;;;;;;;6.80;3.53;;;6.50;99.90;;;;;;5031915;28;20031;-43
2024/01/06 05:20:34;;;;;;;7.25;3.83;;;6.50;99.90;;;;;;5033396;28;20021;-47
2024/01/06 05:23:00;;;;;;;6.25;3.10;;;6.40;99.90;;;;;;5031880;28;20548;-45
2024/01/06 05:25:26;;;;;;;11.13;3.03;;;6.40;99.90;;;;;;5033386;28;20057;-43
2024/01/06 05:27:51;;;;;;;7.82;3.40;;;6.40;99.90;;;;;;5033341;28;20089;-46
2024/01/06 05:30:18;;;;;;;4.32;2.67;;;6.40;99.90;;;;;;5033190;28;20404;-46
2024/01/06 05:32:43;;;;;;;7.00;3.00;;;6.40;99.90;;;;;;5032911;28;20386;-43
2024/01/06 05:35:09;;;;;;;10.30;3.42;;;6.40;99.90;;;;;;5033026;28;20036;-44
2024/01/06 05:37:34;;;;;;;5.55;3.17;;;6.40;99.90;;;;;;5033332;28;20033;-44
2024/01/06 05:40:02;;;;;;;7.18;3.42;;;6.40;99.90;;;;;;5033079;28;20552;-44
2024/01/06 05:42:28;;;;;;;5.20;3.00;;;6.40;99.90;;;;;;5032794;28;20025;-46
2024/01/06 05:44:54;;;;;;;9.35;3.45;;;6.40;99.90;;;;;;5032762;28;20037;-42
2024/01/06 05:47:20;;;;;;;9.32;3.28;;;6.40;99.90;;;;;;5032714;28;20096;-45
2024/01/06 05:49:45;;;;;;;4.22;2.70;;;6.40;99.90;;;;;;5031479;28;20160;-46
2024/01/06 05:52:11;;;;;;;6.82;3.05;;;6.50;99.90;;;;;;5032696;28;20026;-41
2024/01/06 05:54:36;;;;;;;5.32;3.03;;;6.50;99.90;;;;;;5032826;28;20014;-44
2024/01/06 05:57:02;;;;;;;9.35;3.47;;;6.40;99.90;;;;;;5032976;28;20017;-48
2024/01/06 05:59:27;;;;;;;5.10;2.80;;;6.40;99.90;;;;;;5032635;28;20101;-44
2024/01/06 06:01:53;;;;;;;12.13;3.78;;;6.50;99.90;;;;;;5032340;28;20413;-40
2024/01/06 06:04:18;;;;;;;5.35;2.90;;;6.50;99.90;;;;;;5032299;28;20022;-44
2024/01/06 06:06:44;;;;;;;8.30;3.22;;;6.40;99.90;;;;;;5032674;28;20021;-44
2024/01/06 06:09:10;;;;;;;6.30;4.13;;;6.40;99.90;;;;;;5032576;28;20147;-48
2024/01/06 06:11:36;;;;;;;8.60;2.92;;;6.30;99.90;;;;;;5031026;28;20041;-44
2024/01/06 06:14:02;;;;;;;7.50;3.15;;;6.30;99.90;;;;;;5032776;28;20025;-44
2024/01/06 06:16:29;;;;;;;6.70;3.17;;;6.30;99.90;;;;;;5032212;28;20105;-45
2024/01/06 06:18:55;;;;;;;9.15;3.20;;;6.30;99.90;;;;;;5032344;28;20044;-45
2024/01/06 06:21:20;;;;;;;7.63;3.25;;;6.30;99.90;;;;;;5032324;28;20472;-44
2024/01/06 06:23:46;;;;;;;5.50;3.47;;;6.30;99.90;;;;;;5031990;28;20029;-44
2024/01/06 06:26:11;;;;;;;4.15;3.42;;;6.30;99.90;;;;;;5032185;28;20036;-42
2024/01/06 06:28:37;;;;;;;4.55;2.40;;;6.30;99.90;;;;;;5032192;28;20504;-46
2024/01/06 06:31:03;;;;;;;8.07;3.38;;;6.30;99.90;;;;;;5031768;28;20068;-45
2024/01/06 06:33:29;;;;;;;6.47;3.50;;;6.30;99.90;;;;;;5070130;23;20056;-55
2024/01/06 06:35:55;;;;;;;5.95;2.85;;;6.30;99.90;;;;;;5052386;28;20021;-57
2024/01/06 06:38:21;;;;;;;4.78;2.92;;;6.30;99.90;;;;;;5052149;28;20031;-59
2024/01/06 06:40:47;;;;;;;7.05;3.30;;;6.30;99.90;;;;;;5052232;28;20392;-59
2024/01/06 06:43:13;;;;;;;5.72;2.97;;;6.30;99.90;;;;;;5033891;28;20029;-56
2024/01/06 06:45:39;;;;;;;6.15;3.30;;;6.30;99.90;;;;;;5034306;28;20021;-58
2024/01/06 06:48:05;;;;;;;5.07;3.00;;;6.30;99.90;;;;;;5034331;28;20021;-58
2024/01/06 06:50:30;;;;;;;7.35;3.00;;;6.40;99.90;;;;;;5052181;28;20029;-58
2024/01/06 06:52:56;;;;;;;5.30;3.20;;;6.30;99.90;;;;;;5051933;28;20029;-56
2024/01/06 06:55:21;;;;;;;10.00;3.33;;;6.30;99.90;;;;;;5034205;28;20048;-57
2024/01/06 06:57:47;;;;;;;9.50;3.28;;;6.40;99.90;;;;;;5034541;28;20440;-57
2024/01/06 07:00:14;;;;;;;5.57;3.20;;;6.40;99.90;;;;;;5052163;28;20064;-61
2024/01/06 07:02:40;;;;;;;8.13;3.88;;;6.40;99.90;;;;;;5052024;28;20428;-60
2024/01/06 07:05:06;;;;;;;8.13;3.42;;;6.40;99.90;;;;;;5051799;28;20029;-59
2024/01/06 07:07:33;;;;;;;7.38;3.58;;;6.40;99.90;;;;;;5052088;28;20104;-58
2024/01/06 07:10:01;;;;;;;8.32;3.88;;;6.40;99.90;;;;;;5034129;28;20028;-58
2024/01/06 07:12:27;;;;;;;11.07;3.25;;;6.40;99.90;;;;;;5051664;28;20033;-56
2024/01/06 07:14:53;;;;;;;8.68;3.03;;;6.40;99.90;;;;;;5051555;28;20029;-57
2024/01/06 07:17:18;;;;;;;8.10;3.80;;;6.40;99.90;;;;;;5051842;28;20327;-59
2024/01/06 07:19:44;;;;;;;5.85;3.13;;;6.40;99.90;;;;;;5051447;28;20053;-57
2024/01/06 07:22:10;;;;;;;13.15;3.78;;;6.40;99.90;;;;;;5051603;28;20017;-59
2024/01/06 07:24:36;;;;;;;7.45;3.55;;;6.40;99.90;;;;;;5051519;28;20392;-56
2024/01/06 07:27:03;;;;;;;12.82;4.45;;;6.40;99.90;;;;;;5033958;28;20146;-58
2024/01/06 07:29:28;;;;;;;5.95;3.88;;;6.40;99.90;;;;;;5051652;28;20446;-58
2024/01/06 07:31:54;;;;;;;4.25;3.47;;;6.30;99.90;;;;;;5051437;28;20083;-57
2024/01/06 07:34:20;;;;;;;5.88;3.92;;;6.40;99.90;;;;;;5051453;28;20029;-56
2024/01/06 07:36:45;;;;;;;7.90;5.07;;;6.30;99.90;;;;;;5051756;28;20079;-57
2024/01/06 07:39:11;;;;;;;7.68;3.42;;;6.30;99.90;;;;;;5051758;28;20110;-58
2024/01/06 07:41:36;;;;;;;9.15;4.95;;;6.30;99.90;;;;;;5051222;28;20459;-58
2024/01/06 07:44:02;;;;;;;5.95;3.75;;;6.20;99.90;;;;;;5051183;28;20118;-59
2024/01/06 07:46:28;;;;;;;8.35;4.53;;;6.20;99.90;;;;;;5055478;28;20025;-59
2024/01/06 07:48:54;;;;;;;9.43;4.63;;;6.20;99.90;;;;;;5055414;28;20053;-60
2024/01/06 07:51:20;;;;;;;6.80;3.78;;;6.30;99.90;;;;;;5055187;28;20032;-59
2024/01/06 07:53:45;;;;;;;7.03;4.68;;;6.30;99.90;;;;;;5055237;28;20573;-59
2024/01/06 07:56:11;;;;;;;10.38;4.60;;;6.30;99.90;;;;;;5055383;28;20044;-52
2024/01/06 07:58:36;;;;;;;5.80;4.05;;;6.30;99.90;;;;;;5037273;28;20373;-57
2024/01/06 08:01:02;;;;;;;6.50;3.70;;;6.30;99.90;;;;;;5055588;28;20063;-56
2024/01/06 08:03:27;;;;;;;8.27;4.07;;;6.30;99.90;;;;;;5054749;28;20021;-55
2024/01/06 08:05:54;;;;;;;10.95;4.90;;;6.30;99.90;;;;;;5055363;28;20035;-56
2024/01/06 08:08:19;;;;;;;6.88;4.50;;;6.20;99.90;;;;;;5055124;28;20103;-59
2024/01/06 08:10:45;;;;;;;6.38;3.95;;;6.20;99.90;;;;;;5054402;28;20083;-57
2024/01/06 08:13:11;;;;;;;7.10;4.18;;;6.20;99.90;;;;;;5052902;28;20032;-58
2024/01/06 08:15:37;;;;;;;12.98;4.68;;;6.30;99.90;;;;;;5036887;28;20022;-60
2024/01/06 08:18:03;;;;;;;11.05;4.90;;;6.30;99.90;;;;;;5054716;28;20056;-59
2024/01/06 08:20:29;;;;;;;8.10;4.30;;;;;;;;;;5054016;28;20044;-59
2024/01/06 08:22:54;;;;;;;8.63;4.00;;;6.30;99.90;;;;;;5054561;28;20472;-58
2024/01/06 08:25:20;;;;;;;7.72;4.65;;;6.30;99.90;;;;;;5054412;28;20021;-64
2024/01/06 08:27:46;;;;;;;7.25;4.22;;;6.40;99.90;;;;;;5054733;28;20032;-51
2024/01/06 08:30:12;;;;;;;9.38;4.72;;;6.40;99.90;;;;;;5054306;28;20090;-56
2024/01/06 08:32:38;;;;;;;12.02;4.20;;;6.40;99.90;;;;;;5054387;28;20504;-50
2024/01/06 08:35:03;;;;;;;10.85;4.90;;;6.40;99.90;;;;;;5054781;28;20028;-53
2024/01/06 08:37:29;;;;;;;5.70;4.03;;;6.50;99.90;;;;;;5054608;28;20033;-55
2024/01/06 08:39:55;;;;;;;7.95;4.70;;;6.50;99.90;;;;;;5054371;28;20048;-54
2024/01/06 08:42:21;;;;;;;10.60;5.10;;;6.40;99.90;;;;;;5055299;28;20013;-56
2024/01/06 08:44:47;;;;;;;10.48;5.13;;;6.60;99.90;;;;;;5035712;28;20439;-56
2024/01/06 08:47:12;;;;;;;10.32;4.63;;;6.60;99.90;;;;;;5054381;28;20100;-55
2024/01/06 08:49:38;;;;;;;12.02;4.43;;;6.70;99.90;;;;;;5054495;28;20025;-55
2024/01/06 08:52:04;;;;;;;8.95;4.38;;;6.70;99.90;;;;;;5054406;28;20027;-54
2024/01/06 08:54:31;;;;;;;8.52;4.68;;;6.80;99.90;;;;;;5054396;28;20017;-58
2024/01/06 08:56:56;;;;;;;10.43;5.03;;;6.80;99.90;;;;;;5054570;28;20388;-56
2024/01/06 08:59:22;;;;;;;8.30;4.40;;;6.80;99.90;;;;;;5054787;28;20033;-55
2024/01/06 09:01:48;;;;;;;8.52;4.63;;;6.80;99.90;;;;;;5054331;28;20037;-57
2024/01/06 09:04:14;;;;;;;8.02;4.50;;;6.80;99.90;;;;;;5054353;28;20025;-57
2024/01/06 09:06:41;;;;;;;6.70;4.47;;;6.80;99.90;;;;;;5054477;28;20023;-56
2024/01/06 09:09:08;;;;;;;9.52;4.63;;;6.80;99.90;;;;;;5054295;28;20032;-59
2024/01/06 09:11:33;;;;;;;9.75;5.50;;;6.80;99.90;;;;;;5053778;28;20032;-49
2024/01/06 09:13:59;;;;;;;7.25;5.13;;;6.90;99.90;;;;;;5053694;28;20017;-57
2024/01/06 09:16:24;;;;;;;12.63;5.45;;;7.00;99.90;;;;;;5053762;28;20527;-54
2024/01/06 09:18:50;;;;;;;6.88;4.80;;;7.10;99.90;;;;;;5054068;28;20036;-54
2024/01/06 09:21:17;;;;;;;10.02;4.95;;;7.20;99.90;;;;;;5035818;28;20375;-54
2024/01/06 09:23:43;;;;;;;7.68;4.38;;;7.20;99.90;;;;;;5053895;28;20021;-55
2024/01/06 09:26:08;;;;;;;9.98;5.05;;;7.20;99.90;;;;;;5036412;28;20021;-56
2024/01/06 09:28:34;;;;;;;9.52;4.97;;;7.20;99.90;;;;;;5053589;28;20377;-55
2024/01/06 09:30:59;;;;;;;7.55;5.03;;;7.10;99.90;;;;;;5053556;28;20029;-55
2024/01/06 09:33:25;;;;;;;11.52;5.07;;;7.20;99.90;;;;;;5035329;28;20044;-52
2024/01/06 09:35:51;;;;;;;7.60;5.28;;;7.10;99.90;;;;;;5053447;28;20079;-51
2024/01/06 09:38:17;;;;;;;9.32;5.20;;;7.10;99.90;;;;;;5053444;28;20025;-50
2024/01/06 09:40:44;;;;;;;7.80;4.82;;;7.10;99.90;;;;;;5053146;28;20024;-50
2024/01/06 09:43:11;;;;;;;12.10;4.95;;;7.10;99.90;;;;;;5053133;28;20335;-50
2024/01/06 09:45:37;;;;;;;12.07;5.13;;;7.20;99.90;;;;;;5052975;28;20032;-51
2024/01/06 09:48:12;;;;;;;10.05;5.03;;;7.20;99.90;;;;;;5035158;28;20123;-54
2024/01/06 09:50:41;;;;;;;9.50;6.28;;;7.30;99.90;;;;;;5035111;28;20025;-56
2024/01/06 09:53:10;;;;;;;26.13;14.02;;;7.30;99.90;;;;;;5052898;28;20108;-56
2024/01/06 09:55:36;;;;;;;10.98;6.38;;;7.40;99.90;;;;;;5053085;28;20480;-52
2024/01/06 09:58:02;;;;;;;8.48;5.75;;;7.40;99.90;;;;;;5053118;28;20119;-53
2024/01/06 10:00:28;;;;;;;8.15;5.55;;;7.40;99.90;;;;;;5052718;28;20499;-53
2024/01/06 10:02:55;;;;;;;13.68;6.07;;;7.30;99.90;;;;;;5051628;28;20017;-52
2024/01/06 10:05:20;;;;;;;12.52;7.00;;;7.30;99.90;;;;;;5051913;28;20017;-51
2024/01/06 10:07:47;;;;;;;10.45;6.20;;;7.30;99.90;;;;;;5051885;28;20025;-52
2024/01/06 10:10:13;;;;;;;10.02;6.07;;;7.30;99.90;;;;;;5052698;28;20029;-55
2024/01/06 10:12:40;;;;;;;8.75;5.57;;;7.30;99.90;;;;;;5034643;28;20028;-53
2024/01/06 10:15:11;;;;;;;9.50;5.68;;;7.30;99.90;;;;;;5052141;28;20037;-50
2024/01/06 10:17:40;;;;;;;11.70;5.43;;;7.30;99.90;;;;;;5052227;28;20029;-52
2024/01/06 10:20:10;;;;;;;12.32;5.97;;;7.30;99.90;;;;;;5052543;28;20488;-55
2024/01/06 10:22:37;;;;;;;10.25;6.28;;;7.30;99.90;;;;;;5052057;28;20047;-52
2024/01/06 10:25:06;;;;;;;10.32;6.63;;;7.30;99.90;;;;;;5051751;28;20396;-53
2024/01/06 10:27:35;;;;;;;7.82;6.18;;;7.30;99.90;;;;;;5051880;28;20029;-54
2024/01/06 10:30:00;;;;;;;10.70;6.82;;;7.30;99.90;;;;;;5052473;28;20104;-54
2024/01/06 10:32:28;;;;;;;8.15;6.35;;;7.40;99.90;;;;;;5052210;28;20104;-53
2024/01/06 10:34:55;;;;;;;10.73;6.22;;;7.40;99.90;;;;;;5051706;28;20395;-52
2024/01/06 10:37:20;;;;;;;12.18;7.28;;;7.50;99.90;;;;;;5051928;28;20132;-52
2024/01/06 10:39:46;;;;;;;11.38;6.28;;;7.50;99.90;;;;;;5051690;28;20504;-52
2024/01/06 10:42:13;;;;;;;12.60;6.88;;;7.50;99.90;;;;;;5051538;28;20041;-53
2024/01/06 10:44:40;;;;;;;11.65;7.47;;;7.50;99.90;;;;;;5051849;28;20508;-55
2024/01/06 10:47:06;;;;;;;9.32;6.93;;;7.60;99.90;;;;;;5052180;28;20104;-51
2024/01/06 10:49:33;;;;;;;10.75;6.63;;;7.70;99.90;;;;;;5052113;28;20382;-54
2024/01/06 10:52:00;;;;;;;12.15;7.47;;;7.80;99.90;;;;;;5033389;28;20143;-53
2024/01/06 10:54:28;;;;;;;10.00;6.93;;;8.00;99.90;;;;;;5051222;28;20492;-53
2024/01/06 10:56:54;;;;;;;11.93;7.63;;;8.00;99.90;;;;;;5052543;28;20594;-48
2024/01/06 10:59:24;;;;;;;36.25;20.65;;;8.10;99.90;;;;;;5051762;28;20035;-50
2024/01/06 11:01:52;;;;;;;42.33;24.25;;;8.10;99.90;;;;;;5051815;28;20024;-51
2024/01/06 11:04:19;;;;;;;27.33;16.10;;;8.20;99.90;;;;;;5033662;28;20028;-51
2024/01/06 11:06:45;;;;;;;12.05;8.48;;;8.20;99.90;;;;;;5051156;28;20027;-57
2024/01/06 11:09:26;;;;;;;11.82;8.05;;;8.20;99.90;;;;;;5050996;28;20025;-49
2024/01/06 11:11:53;;;;;;;14.40;7.20;;;8.20;99.90;;;;;;5048993;28;20033;-51
2024/01/06 11:14:27;;;;;;;17.63;7.60;;;8.10;99.90;;;;;;5051580;28;20031;-49
2024/01/06 11:16:57;;;;;;;13.00;8.07;;;8.10;99.90;;;;;;5031039;28;20021;-48
2024/01/06 11:19:43;;;;;;;12.40;7.47;;;8.20;99.90;;;;;;5046753;28;20097;-51
2024/01/06 11:22:18;;;;;;;;;;;8.10;99.90;;;;;;5051412;28;20396;-52
2024/01/06 11:24:48;;;;;;;14.98;7.45;;;8.20;99.90;;;;;;5051020;28;19999;-55
2024/01/06 11:27:35;;;;;;;12.80;8.00;;;8.20;99.90;;;;;;5048995;28;20112;-51
2024/01/06 11:30:06;;;;;;;11.60;7.82;;;8.20;99.90;;;;;;5049950;28;20511;-50
2024/01/06 11:32:35;;;;;;;11.75;7.45;;;8.40;99.90;;;;;;5051558;28;20087;-50
2024/01/06 11:35:13;;;;;;;10.05;7.15;;;8.50;99.90;;;;;;5051235;28;20018;-50
2024/01/06 11:37:41;;;;;;;9.95;7.03;;;8.30;99.90;;;;;;5051611;28;20435;-49
2024/01/06 11:40:23;;;;;;;12.30;7.80;;;8.30;99.90;;;;;;5051420;28;20025;-51
2024/01/06 11:43:08;;;;;;;14.70;7.50;;;8.40;99.90;;;;;;5051629;28;20066;-49
2024/01/06 11:45:36;;;;;;;10.98;7.70;;;8.50;99.90;;;;;;5051629;28;20052;-54
2024/01/06 11:48:07;;;;;;;7.43;6.10;;;8.50;99.90;;;;;;5051638;28;20033;-52
2024/01/06 11:50:35;;;;;;;13.02;7.13;;;8.50;99.90;;;;;;5033546;28;20052;-56
2024/01/06 11:53:01;;;;;;;13.07;7.57;;;8.60;99.90;;;;;;5050461;28;20021;-53
2024/01/06 11:55:33;;;;;;;10.18;5.85;;;8.70;99.90;;;;;;5051297;28;20033;-52
2024/01/06 11:58:02;;;;;;;7.38;6.65;;;8.70;99.90;;;;;;5051337;28;20040;-50
2024/01/06 12:00:29;;;;;;;10.40;6.63;;;8.60;99.90;;;;;;5051501;28;20484;-51
2024/01/06 12:02:59;;;;;;;12.80;6.55;;;8.60;99.90;;;;;;5051275;28;20140;-48
2024/01/06 12:05:26;;;;;;;8.57;6.50;;;8.70;99.90;;;;;;5051289;28;20024;-51
2024/01/06 12:07:56;;;;;;;8.52;5.68;;;8.80;99.90;;;;;;5045838;28;20025;-50
2024/01/06 12:10:22;;;;;;;6.60;5.50;;;8.70;99.90;;;;;;5041802;28;20032;-52
2024/01/06 12:13:05;;;;;;;8.77;7.20;;;8.80;99.90;;;;;;5031970;28;20569;-52
2024/01/06 12:15:32;;;;;;;11.45;5.93;;;8.70;99.90;;;;;;5042363;28;20489;-50
2024/01/06 12:17:58;;;;;;;9.95;5.50;;;8.70;99.90;;;;;;5041565;28;21222;-56
2024/01/06 12:20:25;;;;;;;12.30;5.70;;;8.80;99.90;;;;;;5030052;28;20083;-55
2024/01/06 12:22:54;;;;;;;9.27;6.25;;;8.80;99.90;;;;;;5031027;28;20025;-56
2024/01/06 12:25:25;;;;;;;11.02;6.18;;;8.80;99.90;;;;;;5027498;28;20102;-59
2024/01/06 12:27:52;;;;;;;8.05;5.78;;;8.90;99.90;;;;;;5042028;28;20029;-56
2024/01/06 12:30:19;;;;;;;7.55;5.75;;;8.80;99.90;;;;;;5042306;28;20025;-58
2024/01/06 12:32:47;;;;;;;9.52;5.05;;;8.80;99.90;;;;;;5042262;22;20591;-47
2024/01/06 12:35:13;;;;;;;8.27;5.65;;;8.80;99.90;;;;;;5010298;28;20025;-53
2024/01/06 12:37:39;;;;;;;9.05;5.60;;;8.80;99.90;;;;;;5016370;28;20034;-48
2024/01/06 12:40:05;;;;;;;12.32;7.20;;;8.80;99.90;;;;;;5017265;28;20026;-50
2024/01/06 12:42:31;;;;;;;10.57;5.93;;;8.70;99.90;;;;;;5008321;28;20053;-52
2024/01/06 12:44:56;;;;;;;13.38;5.95;;;8.90;99.90;;;;;;5014558;28;20050;-50
2024/01/06 12:47:22;;;;;;;6.45;5.22;;;8.90;99.90;;;;;;5010680;28;20033;-54
2024/01/06 12:49:48;;;;;;;7.13;4.97;;;8.70;99.90;;;;;;4997725;28;20120;-48
2024/01/06 12:52:14;;;;;;;14.77;5.47;;;8.90;99.90;;;;;;5010124;28;20041;-49